Time;durP1;ratioP1;P1;durP2;ratioP2;P2;SDS_P1;SDS_P2;PMS_P1;PMS_P2;Temp;Humidity;BMP_temperature;BMP_pressure;BME280_temperature;BME280_humidity;BME280_pressure;Samples;Min_cycle;Max_cycle;Signal;HPM_P1;HPM_P2
2022/08/13 00:00:19;;;;;;;0.60;0.60;;;24.90;45.40;;;;;;5062501;28;20028;-67
2022/08/13 00:02:44;;;;;;;0.40;0.40;;;24.90;45.40;;;;;;5062032;28;20434;-67
2022/08/13 00:05:10;;;;;;;0.60;0.60;;;24.90;45.40;;;;;;5062873;28;20028;-65
2022/08/13 00:07:37;;;;;;;0.50;0.50;;;24.90;45.40;;;;;;5061793;28;20052;-67
2022/08/13 00:10:06;;;;;;;0.60;0.60;;;24.90;45.40;;;;;;5062015;28;20063;-66
2022/08/13 00:15:31;;;;;;;0.50;0.50;;;24.90;45.40;;;;;;5061595;28;20494;-65
2022/08/13 00:17:59;;;;;;;0.50;0.50;;;24.90;45.40;;;;;;5061418;28;20507;-67
2022/08/13 00:20:28;;;;;;;0.45;0.45;;;24.80;45.40;;;;;;5060896;28;20025;-67
2022/08/13 00:22:56;;;;;;;0.60;0.60;;;24.90;45.40;;;;;;5059562;28;20032;-66
2022/08/13 00:25:23;;;;;;;0.43;0.43;;;24.90;45.40;;;;;;5062102;28;20502;-66
2022/08/13 00:27:56;;;;;;;0.60;0.60;;;24.90;45.40;;;;;;5062448;28;20017;-66
2022/08/13 00:30:30;;;;;;;0.50;0.50;;;24.90;45.40;;;;;;5062070;28;20480;-65
2022/08/13 00:33:01;;;;;;;0.50;0.50;;;24.90;45.40;;;;;;5060824;28;20051;-67
2022/08/13 00:35:27;;;;;;;0.50;0.50;;;24.90;45.40;;;;;;5061099;28;20403;-67
2022/08/13 00:37:53;;;;;;;0.73;0.57;;;24.90;45.40;;;;;;5061859;28;20036;-66
2022/08/13 00:40:19;;;;;;;0.50;0.50;;;24.80;45.30;;;;;;5062542;28;20028;-68
2022/08/13 00:42:45;;;;;;;0.43;0.43;;;24.80;45.40;;;;;;5061498;28;20025;-67
2022/08/13 00:45:12;;;;;;;1.23;0.50;;;24.80;45.40;;;;;;5061626;28;20295;-67
2022/08/13 00:50:22;;;;;;;0.40;0.40;;;24.80;45.40;;;;;;5061998;28;20040;-66
2022/08/13 00:52:49;;;;;;;0.55;0.55;;;24.80;45.40;;;;;;5061425;28;20052;-66
2022/08/13 00:55:17;;;;;;;0.80;0.60;;;24.80;45.40;;;;;;5061909;28;20106;-66
2022/08/13 00:57:46;;;;;;;0.50;0.50;;;24.80;45.40;;;;;;5060496;28;20447;-67
2022/08/13 01:00:15;;;;;;;0.50;0.50;;;24.80;45.40;;;;;;5061916;28;20036;-68
2022/08/13 01:02:43;;;;;;;0.50;0.50;;;24.80;45.40;;;;;;5062103;28;20532;-67
2022/08/13 01:05:09;;;;;;;0.47;0.47;;;24.80;45.40;;;;;;5060433;28;20173;-67
2022/08/13 01:07:37;;;;;;;0.40;0.40;;;24.80;45.40;;;;;;5061079;28;20503;-67
2022/08/13 01:10:03;;;;;;;0.45;0.45;;;24.80;45.40;;;;;;5058817;28;20025;-67
2022/08/13 01:12:30;;;;;;;0.50;0.50;;;24.80;45.40;;;;;;5061218;28;20048;-67
2022/08/13 01:14:57;;;;;;;0.50;0.50;;;24.80;45.40;;;;;;5061312;28;20024;-67
2022/08/13 01:17:23;;;;;;;0.50;0.50;;;24.80;45.40;;;;;;5060828;28;20032;-67
2022/08/13 01:19:50;;;;;;;0.60;0.57;;;24.80;45.40;;;;;;5061660;28;20476;-68
2022/08/13 01:22:16;;;;;;;0.57;0.57;;;24.80;45.40;;;;;;5058810;28;20479;-66
2022/08/13 01:24:42;;;;;;;0.50;0.50;;;24.80;45.40;;;;;;5060808;28;20027;-67
2022/08/13 01:27:09;;;;;;;0.40;0.40;;;24.80;45.40;;;;;;5061339;28;20108;-66
2022/08/13 01:29:36;;;;;;;0.43;0.43;;;24.80;45.50;;;;;;5061267;28;20107;-66
2022/08/13 01:32:02;;;;;;;0.52;0.50;;;24.80;45.40;;;;;;5059604;28;20048;-66
2022/08/13 01:34:31;;;;;;;0.43;0.43;;;24.80;45.40;;;;;;5060874;28;20089;-66
2022/08/13 01:36:57;;;;;;;0.50;0.50;;;24.80;45.40;;;;;;5061027;28;20024;-67
2022/08/13 01:39:27;;;;;;;0.50;0.50;;;24.80;45.40;;;;;;5061046;28;20025;-65
2022/08/13 01:41:53;;;;;;;0.50;0.50;;;24.80;45.50;;;;;;5060145;28;20059;-68
2022/08/13 01:44:19;;;;;;;0.50;0.50;;;24.80;45.50;;;;;;5061575;28;20024;-67
2022/08/13 01:52:14;;;;;;;0.50;0.47;;;24.70;45.50;;;;;;5060812;28;20040;-67
2022/08/13 01:54:40;;;;;;;0.50;0.50;;;24.70;45.40;;;;;;5060601;28;20029;-67
2022/08/13 01:57:07;;;;;;;0.55;0.52;;;24.70;45.50;;;;;;5059611;28;20432;-68
2022/08/13 01:59:35;;;;;;;0.50;0.50;;;24.70;45.50;;;;;;5060796;28;20115;-67
2022/08/13 02:02:03;;;;;;;0.45;0.45;;;24.70;45.40;;;;;;5060599;28;20571;-67
2022/08/13 02:04:29;;;;;;;0.47;0.47;;;24.70;45.50;;;;;;5060936;28;20151;-67
2022/08/13 02:06:59;;;;;;;0.40;0.40;;;24.70;45.50;;;;;;5059762;28;20552;-67
2022/08/13 02:09:25;;;;;;;0.60;0.50;;;24.70;45.50;;;;;;5060320;28;20178;-67
2022/08/13 02:11:51;;;;;;;0.50;0.50;;;24.70;45.50;;;;;;5061032;28;20037;-67
2022/08/13 02:14:17;;;;;;;0.40;0.40;;;24.70;45.50;;;;;;5060183;28;20028;-66
2022/08/13 02:16:43;;;;;;;0.50;0.50;;;24.70;45.50;;;;;;5060924;28;20029;-68
2022/08/13 02:19:09;;;;;;;0.47;0.47;;;24.70;45.40;;;;;;5058419;28;20028;-66
2022/08/13 02:21:36;;;;;;;0.57;0.50;;;24.70;45.50;;;;;;5061745;28;20028;-66
2022/08/13 02:24:03;;;;;;;0.50;0.50;;;24.70;45.50;;;;;;5058427;28;20028;-67
2022/08/13 02:26:31;;;;;;;0.50;0.50;;;24.70;45.50;;;;;;5059404;28;20024;-67
2022/08/13 02:29:00;;;;;;;0.50;0.50;;;24.70;45.50;;;;;;5064621;28;20028;-67
2022/08/13 02:31:32;;;;;;;0.50;0.50;;;24.70;45.50;;;;;;5063175;28;20029;-66
2022/08/13 02:33:58;;;;;;;0.40;0.40;;;24.70;45.50;;;;;;5064753;28;20503;-67
2022/08/13 02:36:24;;;;;;;0.47;0.47;;;24.70;45.50;;;;;;5063500;28;20029;-66
2022/08/13 02:38:54;;;;;;;0.50;0.50;;;24.70;45.50;;;;;;5065372;28;20025;-68
2022/08/13 02:41:39;;;;;;;0.40;0.40;;;24.60;45.40;;;;;;5064333;28;20522;-67
2022/08/13 02:44:06;;;;;;;0.55;0.55;;;24.70;45.50;;;;;;5059887;28;20057;-68
2022/08/13 02:46:31;;;;;;;0.30;0.30;;;24.70;45.50;;;;;;5065033;28;20417;-66
2022/08/13 02:48:58;;;;;;;0.50;0.50;;;24.70;45.50;;;;;;5063958;28;20067;-67
2022/08/13 02:51:25;;;;;;;0.40;0.40;;;24.70;45.50;;;;;;5064600;28;20024;-65
2022/08/13 02:53:52;;;;;;;0.40;0.40;;;24.60;45.40;;;;;;5061967;28;20111;-67
2022/08/13 02:56:18;;;;;;;0.70;0.60;;;24.60;45.40;;;;;;5063263;28;20060;-66
2022/08/13 02:58:45;;;;;;;0.50;0.47;;;24.70;45.50;;;;;;5064354;28;20448;-67
2022/08/13 03:01:12;;;;;;;0.50;0.50;;;24.60;45.40;;;;;;5063603;28;20154;-66
2022/08/13 03:03:38;;;;;;;0.40;0.40;;;24.60;45.50;;;;;;5063671;28;20029;-66
2022/08/13 03:06:04;;;;;;;0.50;0.50;;;24.70;45.50;;;;;;5064297;28;20051;-66
2022/08/13 03:08:30;;;;;;;0.43;0.43;;;24.70;46.00;;;;;;5062748;28;20032;-68
2022/08/13 03:10:56;;;;;;;0.50;0.50;;;24.60;45.40;;;;;;5064223;28;20029;-67
2022/08/13 03:13:32;;;;;;;0.50;0.50;;;24.70;45.40;;;;;;5063457;28;20041;-67
2022/08/13 03:16:00;;;;;;;0.40;0.40;;;24.70;45.50;;;;;;5062471;28;20472;-67
2022/08/13 03:18:25;;;;;;;0.52;0.52;;;24.60;45.40;;;;;;5062461;28;20035;-66
2022/08/13 03:20:51;;;;;;;0.50;0.50;;;24.70;45.40;;;;;;5062609;28;20033;-67
2022/08/13 03:23:17;;;;;;;0.50;0.50;;;24.60;45.40;;;;;;5063621;28;20107;-66
2022/08/13 03:25:44;;;;;;;0.50;0.50;;;24.70;45.40;;;;;;5061926;28;20392;-67
2022/08/13 03:28:10;;;;;;;0.35;0.35;;;24.70;45.40;;;;;;5063321;28;20383;-66
2022/08/13 03:30:36;;;;;;;0.82;0.50;;;24.70;45.40;;;;;;5063492;28;20124;-67
2022/08/13 03:33:13;;;;;;;0.50;0.50;;;24.70;45.40;;;;;;5064143;28;20111;-67
2022/08/13 03:35:39;;;;;;;0.85;0.60;;;24.70;45.40;;;;;;5062850;28;20037;-66
2022/08/13 03:38:08;;;;;;;0.50;0.50;;;24.60;45.30;;;;;;5061408;28;20048;-67
2022/08/13 03:43:19;;;;;;;0.40;0.40;;;24.70;45.40;;;;;;5063893;28;20552;-67
2022/08/13 03:45:45;;;;;;;0.50;0.50;;;24.60;45.30;;;;;;5062640;28;20029;-68
2022/08/13 03:48:15;;;;;;;0.50;0.50;;;24.60;45.30;;;;;;5062845;28;20370;-66
2022/08/13 03:50:45;;;;;;;0.50;0.50;;;24.60;45.30;;;;;;5061907;28;20170;-66
2022/08/13 03:53:11;;;;;;;0.47;0.47;;;24.60;45.70;;;;;;5061668;28;20025;-67
2022/08/13 03:55:41;;;;;;;0.40;0.40;;;24.60;45.30;;;;;;5062478;28;20023;-67
2022/08/13 03:58:07;;;;;;;0.47;0.47;;;24.60;45.30;;;;;;5063102;28;20036;-67
2022/08/13 04:00:39;;;;;;;0.45;0.45;;;24.60;45.40;;;;;;5063382;28;20043;-66
2022/08/13 04:03:24;;;;;;;0.45;0.40;;;24.60;45.30;;;;;;5062032;28;20040;-66
2022/08/13 04:05:54;;;;;;;0.50;0.50;;;24.60;45.30;;;;;;5063698;28;20484;-67
2022/08/13 04:08:20;;;;;;;0.50;0.50;;;24.60;45.40;;;;;;5061969;28;20028;-67
2022/08/13 04:10:47;;;;;;;0.73;0.50;;;24.60;45.30;;;;;;5062026;28;20025;-66
2022/08/13 04:13:15;;;;;;;0.50;0.50;;;24.60;45.30;;;;;;5062603;28;20051;-67
2022/08/13 04:15:45;;;;;;;0.50;0.50;;;24.60;45.30;;;;;;5062457;28;20025;-67
2022/08/13 04:18:14;;;;;;;0.50;0.50;;;24.60;45.30;;;;;;5060180;28;20032;-66
2022/08/13 04:20:52;;;;;;;0.50;0.50;;;24.60;45.30;;;;;;5061797;28;20024;-66
2022/08/13 04:23:19;;;;;;;0.60;0.60;;;24.60;45.30;;;;;;5061033;28;20028;-66
2022/08/13 04:25:47;;;;;;;0.68;0.57;;;24.60;45.30;;;;;;5061969;28;20484;-67
2022/08/13 04:28:15;;;;;;;0.60;0.60;;;24.60;45.30;;;;;;5062224;28;20029;-66
2022/08/13 04:30:41;;;;;;;0.47;0.47;;;24.60;45.30;;;;;;5061694;28;20491;-66
2022/08/13 04:33:12;;;;;;;0.50;0.50;;;24.60;45.30;;;;;;5061944;28;20166;-66
2022/08/13 04:35:38;;;;;;;0.50;0.50;;;24.60;45.30;;;;;;5059450;28;20032;-67
2022/08/13 04:38:05;;;;;;;0.55;0.50;;;24.60;45.30;;;;;;5062211;28;20396;-67
2022/08/13 04:40:33;;;;;;;0.50;0.50;;;24.60;45.30;;;;;;5062638;28;20032;-66
2022/08/13 04:42:59;;;;;;;0.50;0.50;;;24.60;45.30;;;;;;5060470;28;20388;-67
2022/08/13 04:45:28;;;;;;;0.50;0.50;;;24.60;45.40;;;;;;5060152;28;20032;-67
2022/08/13 04:47:58;;;;;;;0.50;0.50;;;24.60;45.90;;;;;;5043245;28;20479;-66
2022/08/13 04:50:25;;;;;;;0.60;0.60;;;24.60;45.30;;;;;;5058744;28;20036;-66
2022/08/13 04:52:51;;;;;;;0.50;0.50;;;24.50;45.30;;;;;;5060214;28;20113;-67
2022/08/13 04:55:17;;;;;;;0.43;0.43;;;24.60;45.30;;;;;;5058711;28;20445;-67
2022/08/13 04:57:43;;;;;;;0.50;0.50;;;24.50;45.30;;;;;;5062363;28;20468;-66
2022/08/13 05:00:10;;;;;;;0.50;0.50;;;24.50;45.30;;;;;;5060304;28;20071;-66
2022/08/13 05:02:40;;;;;;;0.47;0.47;;;24.50;45.30;;;;;;5061819;28;20091;-68
2022/08/13 05:05:07;;;;;;;0.50;0.50;;;24.50;45.30;;;;;;5061492;28;20434;-66
2022/08/13 05:07:33;;;;;;;0.50;0.50;;;24.50;45.30;;;;;;5060423;28;20571;-67
2022/08/13 05:09:59;;;;;;;0.60;0.60;;;24.50;45.30;;;;;;5061354;28;20108;-66
2022/08/13 05:12:24;;;;;;;0.50;0.50;;;24.50;45.30;;;;;;5062254;28;20056;-66
2022/08/13 05:14:50;;;;;;;0.50;0.50;;;24.50;45.40;;;;;;5060480;28;20044;-67
2022/08/13 05:17:16;;;;;;;0.55;0.50;;;24.50;45.30;;;;;;5061101;28;20041;-67
2022/08/13 05:19:42;;;;;;;0.65;0.55;;;24.60;45.40;;;;;;5060919;28;20111;-67
2022/08/13 05:22:08;;;;;;;0.50;0.50;;;24.60;45.40;;;;;;5062425;28;20040;-67
2022/08/13 05:24:36;;;;;;;0.40;0.40;;;24.50;45.40;;;;;;5061161;28;20024;-67
2022/08/13 05:27:02;;;;;;;0.45;0.45;;;24.50;45.40;;;;;;5059663;28;20078;-68
2022/08/13 05:29:27;;;;;;;0.50;0.50;;;24.50;45.40;;;;;;5061284;28;20511;-67
2022/08/13 05:31:54;;;;;;;0.55;0.55;;;24.50;45.40;;;;;;5060311;28;20130;-67
2022/08/13 05:34:19;;;;;;;0.57;0.57;;;24.50;45.40;;;;;;5058735;28;20033;-66
2022/08/13 05:36:46;;;;;;;0.77;0.50;;;24.50;45.40;;;;;;5061497;28;20476;-65
2022/08/13 05:39:13;;;;;;;0.40;0.40;;;24.50;45.40;;;;;;5061342;28;20033;-67
2022/08/13 05:41:41;;;;;;;0.50;0.50;;;24.50;45.90;;;;;;5058299;28;20040;-66
2022/08/13 05:44:08;;;;;;;0.57;0.57;;;24.50;45.40;;;;;;5061290;28;20488;-66
2022/08/13 05:46:34;;;;;;;0.60;0.60;;;24.50;45.40;;;;;;5060215;28;20033;-68
2022/08/13 05:49:00;;;;;;;0.50;0.50;;;24.50;45.40;;;;;;5061893;28;20678;-66
2022/08/13 05:51:28;;;;;;;0.57;0.57;;;24.50;45.40;;;;;;5060856;28;20032;-68
2022/08/13 05:53:56;;;;;;;0.40;0.40;;;24.50;45.40;;;;;;5059751;28;20043;-68
2022/08/13 05:56:22;;;;;;;0.60;0.60;;;24.50;45.40;;;;;;5061203;28;20028;-66
2022/08/13 05:58:49;;;;;;;0.50;0.50;;;24.50;45.40;;;;;;5061058;28;20361;-66
2022/08/13 06:04:00;;;;;;;0.50;0.50;;;24.50;45.40;;;;;;5065609;28;20032;-67
2022/08/13 06:06:28;;;;;;;0.57;0.57;;;24.40;45.40;;;;;;5065082;28;20488;-66
2022/08/13 06:08:59;;;;;;;0.50;0.50;;;24.50;45.40;;;;;;5064265;28;20170;-67
2022/08/13 06:11:26;;;;;;;0.50;0.50;;;24.50;45.40;;;;;;5063610;28;20029;-66
2022/08/13 06:13:52;;;;;;;0.50;0.50;;;24.50;45.40;;;;;;5064798;28;20021;-67
2022/08/13 06:16:19;;;;;;;0.43;0.43;;;24.50;45.40;;;;;;5064391;28;20024;-68
2022/08/13 06:18:49;;;;;;;0.52;0.50;;;24.50;45.40;;;;;;5063772;28;20032;-67
2022/08/13 06:21:17;;;;;;;0.50;0.50;;;24.40;45.40;;;;;;5064877;28;20051;-66
2022/08/13 06:23:45;;;;;;;0.50;0.50;;;24.40;45.40;;;;;;5062727;28;20032;-66
2022/08/13 06:26:14;;;;;;;0.52;0.52;;;24.40;45.40;;;;;;5064313;28;20124;-66
2022/08/13 06:28:44;;;;;;;0.50;0.50;;;24.50;45.40;;;;;;5063593;28;20032;-65
2022/08/13 06:31:13;;;;;;;0.63;0.60;;;24.50;45.40;;;;;;5063626;28;20368;-65
2022/08/13 06:33:40;;;;;;;0.60;0.50;;;24.40;45.40;;;;;;5062655;28;20415;-66
2022/08/13 06:36:11;;;;;;;1.13;0.50;;;24.40;45.40;;;;;;5064535;28;20447;-65
2022/08/13 06:38:50;;;;;;;0.50;0.50;;;24.50;45.50;;;;;;5064801;28;20514;-66
2022/08/13 06:41:18;;;;;;;;;;;24.40;45.40;;;;;;5063202;28;20064;-66
2022/08/13 06:43:47;;;;;;;0.60;0.60;;;24.40;45.40;;;;;;5064478;28;19912;-66
2022/08/13 06:46:15;;;;;;;0.50;0.50;;;24.40;45.40;;;;;;5064096;28;20068;-66
2022/08/13 06:48:41;;;;;;;0.47;0.47;;;24.40;45.40;;;;;;5062344;28;20488;-66
2022/08/13 06:51:09;;;;;;;0.55;0.50;;;24.40;45.40;;;;;;5063302;28;20032;-66
2022/08/13 06:53:36;;;;;;;0.40;0.40;;;24.40;45.50;;;;;;5062613;28;20392;-66
2022/08/13 06:56:05;;;;;;;0.60;0.60;;;24.40;45.50;;;;;;5064155;28;20079;-66
2022/08/13 06:58:31;;;;;;;0.70;0.60;;;24.40;45.50;;;;;;5062147;28;20029;-66
2022/08/13 07:00:59;;;;;;;0.60;0.60;;;24.40;45.50;;;;;;5063985;28;20041;-65
2022/08/13 07:03:27;;;;;;;0.60;0.60;;;24.40;45.50;;;;;;5063814;28;20028;-67
2022/08/13 07:05:56;;;;;;;0.60;0.60;;;24.40;45.50;;;;;;5064612;28;20486;-66
2022/08/13 07:08:24;;;;;;;0.60;0.60;;;24.40;45.50;;;;;;5061966;28;20467;-66
2022/08/13 07:11:21;;;;;;;0.93;0.60;;;24.40;45.50;;;;;;5061952;28;20060;-66
2022/08/13 07:13:43;;;;;;;0.60;0.60;;;24.40;45.40;;;;;;5062169;28;20060;-66
2022/08/13 07:16:10;;;;;;;0.60;0.60;;;24.40;45.50;;;;;;5063819;28;20072;-66
2022/08/13 07:18:37;;;;;;;0.82;0.60;;;24.40;45.50;;;;;;5063552;28;20064;-65
2022/08/13 07:21:11;;;;;;;0.80;0.50;;;24.40;45.50;;;;;;5062690;28;20132;-66
2022/08/13 07:23:42;;;;;;;0.63;0.60;;;24.40;45.50;;;;;;5062882;28;20354;-66
2022/08/13 07:26:11;;;;;;;0.68;0.60;;;24.40;45.50;;;;;;5062708;28;20021;-65
2022/08/13 07:28:36;;;;;;;0.77;0.60;;;24.30;45.50;;;;;;5063309;28;20534;-66
2022/08/13 07:31:06;;;;;;;0.52;0.52;;;24.40;45.50;;;;;;5062998;28;20033;-67
2022/08/13 07:33:37;;;;;;;0.50;0.50;;;24.40;45.50;;;;;;5061958;28;20056;-66
2022/08/13 07:36:08;;;;;;;0.50;0.50;;;24.40;45.60;;;;;;5063725;28;20779;-66
2022/08/13 07:38:34;;;;;;;0.50;0.50;;;24.40;45.50;;;;;;5061808;28;20056;-66
2022/08/13 07:41:02;;;;;;;0.40;0.40;;;24.30;45.50;;;;;;5062693;28;20435;-66
2022/08/13 07:43:32;;;;;;;0.90;0.60;;;24.40;45.60;;;;;;5063374;28;20033;-66
2022/08/13 07:46:07;;;;;;;0.50;0.50;;;24.30;45.50;;;;;;5063697;28;20523;-65
2022/08/13 07:48:35;;;;;;;0.50;0.50;;;24.40;45.60;;;;;;5061181;28;20033;-66
2022/08/13 07:51:02;;;;;;;0.50;0.50;;;24.40;45.60;;;;;;5061966;28;20036;-66
2022/08/13 07:53:28;;;;;;;0.68;0.50;;;24.30;45.50;;;;;;5062844;28;20488;-65
2022/08/13 07:55:55;;;;;;;0.50;0.50;;;24.30;45.50;;;;;;5062519;28;20091;-66
2022/08/13 07:58:24;;;;;;;0.50;0.50;;;24.40;45.60;;;;;;5061945;28;20029;-66
2022/08/13 08:00:49;;;;;;;0.50;0.50;;;24.40;45.60;;;;;;5062617;28;20044;-67
2022/08/13 08:03:16;;;;;;;0.50;0.50;;;24.40;45.60;;;;;;5061939;28;20523;-66
2022/08/13 08:05:44;;;;;;;0.50;0.50;;;24.40;45.60;;;;;;5063255;28;20044;-65
2022/08/13 08:08:13;;;;;;;0.60;0.60;;;24.30;45.50;;;;;;5062510;28;20028;-66
2022/08/13 08:10:40;;;;;;;0.57;0.57;;;24.40;45.60;;;;;;5060803;28;20032;-66
2022/08/13 08:13:08;;;;;;;0.43;0.43;;;24.40;45.60;;;;;;5062509;28;20041;-66
2022/08/13 08:15:35;;;;;;;0.50;0.50;;;24.30;45.60;;;;;;5062847;28;20476;-66
2022/08/13 08:18:02;;;;;;;0.60;0.60;;;24.30;45.60;;;;;;5059306;28;20041;-66
2022/08/13 08:20:28;;;;;;;0.50;0.50;;;24.30;45.60;;;;;;5062482;28;20031;-66
2022/08/13 08:22:54;;;;;;;0.40;0.40;;;24.30;45.60;;;;;;5061535;28;20070;-66
2022/08/13 08:25:21;;;;;;;0.65;0.60;;;24.30;45.60;;;;;;5061858;28;20028;-66
2022/08/13 08:27:48;;;;;;;0.70;0.50;;;24.30;45.60;;;;;;5061685;28;20056;-66
2022/08/13 08:30:18;;;;;;;0.50;0.50;;;24.30;45.60;;;;;;5062324;28;20379;-66
2022/08/13 08:32:53;;;;;;;0.50;0.50;;;24.30;45.60;;;;;;5062153;28;20063;-65
2022/08/13 08:35:20;;;;;;;0.75;0.50;;;24.30;45.60;;;;;;5060628;28;20040;-66
2022/08/13 08:43:29;;;;;;;0.63;0.57;;;24.30;45.60;;;;;;5060725;28;20035;-66
2022/08/13 08:45:55;;;;;;;0.50;0.50;;;24.30;45.60;;;;;;5062563;28;20460;-66
2022/08/13 08:48:21;;;;;;;0.50;0.50;;;24.30;45.60;;;;;;5062256;28;20456;-66
2022/08/13 08:50:47;;;;;;;0.50;0.50;;;24.30;45.70;;;;;;5061794;28;20044;-66
2022/08/13 08:53:19;;;;;;;0.60;0.52;;;24.30;45.70;;;;;;5062084;28;20127;-66
2022/08/13 08:55:45;;;;;;;0.50;0.50;;;24.30;45.70;;;;;;5060462;28;20025;-66
2022/08/13 08:58:12;;;;;;;0.57;0.57;;;24.30;45.70;;;;;;5062582;28;20093;-66
2022/08/13 09:00:39;;;;;;;0.85;0.60;;;24.30;45.70;;;;;;5059369;28;20033;-66
2022/08/13 09:03:08;;;;;;;0.40;0.40;;;24.30;45.80;;;;;;5058081;28;20075;-66
2022/08/13 09:05:34;;;;;;;0.47;0.47;;;24.30;45.80;;;;;;5062354;28;20756;-66
2022/08/13 09:08:02;;;;;;;0.82;0.57;;;24.30;45.80;;;;;;5062081;28;20025;-66
2022/08/13 09:10:33;;;;;;;0.50;0.50;;;24.30;45.80;;;;;;5062304;28;20495;-65
2022/08/13 09:13:02;;;;;;;0.55;0.55;;;24.30;45.80;;;;;;5060918;28;20036;-66
2022/08/13 09:15:33;;;;;;;0.50;0.50;;;24.30;45.80;;;;;;5061126;28;20526;-65
2022/08/13 09:18:00;;;;;;;0.50;0.50;;;24.30;45.80;;;;;;5059492;28;20502;-66
2022/08/13 09:20:28;;;;;;;0.60;0.50;;;24.30;45.80;;;;;;5061515;28;20500;-66
2022/08/13 09:23:12;;;;;;;0.52;0.52;;;24.30;45.80;;;;;;5060527;28;20059;-65
2022/08/13 09:25:41;;;;;;;0.60;0.60;;;24.30;45.80;;;;;;5059279;28;20021;-66
2022/08/13 09:28:08;;;;;;;0.88;0.60;;;24.30;45.80;;;;;;5060202;28;20075;-66
2022/08/13 09:30:34;;;;;;;0.50;0.50;;;24.30;45.80;;;;;;5058096;28;20033;-66
2022/08/13 09:33:02;;;;;;;0.50;0.50;;;24.30;45.80;;;;;;5060355;28;20535;-66
2022/08/13 09:35:31;;;;;;;0.70;0.70;;;24.30;45.80;;;;;;5059220;28;20028;-65
2022/08/13 09:37:58;;;;;;;0.93;0.60;;;24.30;45.80;;;;;;5059628;28;20060;-66
2022/08/13 09:40:27;;;;;;;0.52;0.52;;;24.30;45.80;;;;;;5061251;28;20031;-66
2022/08/13 09:42:57;;;;;;;0.45;0.45;;;24.30;45.80;;;;;;5059912;28;20026;-66
2022/08/13 09:45:25;;;;;;;0.52;0.52;;;24.30;45.80;;;;;;5059602;28;20036;-66
2022/08/13 09:47:52;;;;;;;0.80;0.50;;;24.30;45.80;;;;;;5061301;28;20380;-66
2022/08/13 09:50:18;;;;;;;0.60;0.60;;;24.30;45.70;;;;;;5060696;28;20445;-66
2022/08/13 09:52:44;;;;;;;0.50;0.50;;;24.30;45.70;;;;;;5061233;28;20086;-66
2022/08/13 09:55:09;;;;;;;0.60;0.60;;;24.30;45.70;;;;;;5060184;28;20048;-66
2022/08/13 09:57:58;;;;;;;0.55;0.55;;;24.30;45.70;;;;;;5060802;28;20025;-67
2022/08/13 10:00:27;;;;;;;0.50;0.50;;;24.30;45.70;;;;;;5060064;28;20079;-66
2022/08/13 10:02:56;;;;;;;0.50;0.50;;;24.30;45.70;;;;;;5061339;28;20047;-66
2022/08/13 10:05:25;;;;;;;0.60;0.60;;;24.30;45.70;;;;;;5058885;28;20025;-66
2022/08/13 10:07:52;;;;;;;0.60;0.60;;;24.40;45.80;;;;;;5061131;28;20017;-67
2022/08/13 10:10:19;;;;;;;0.60;0.60;;;24.40;45.80;;;;;;5060085;28;20021;-66
2022/08/13 10:12:45;;;;;;;0.55;0.55;;;24.40;45.80;;;;;;5060748;28;20053;-66
2022/08/13 10:15:12;;;;;;;0.70;0.60;;;24.30;45.70;;;;;;5059556;28;20028;-66
2022/08/13 10:17:56;;;;;;;0.80;0.68;;;24.40;45.80;;;;;;5060826;28;20033;-66
2022/08/13 10:20:29;;;;;;;0.50;0.50;;;24.30;45.70;;;;;;5059282;28;20037;-65
2022/08/13 10:22:55;;;;;;;0.60;0.60;;;24.40;45.80;;;;;;5059515;28;20029;-66
2022/08/13 10:25:26;;;;;;;0.57;0.57;;;24.40;45.80;;;;;;5060510;28;20087;-66
2022/08/13 10:27:52;;;;;;;0.50;0.50;;;24.30;45.70;;;;;;5061923;28;20170;-66
2022/08/13 10:30:20;;;;;;;0.80;0.60;;;24.40;45.80;;;;;;5060303;28;20099;-66
2022/08/13 10:32:46;;;;;;;0.60;0.60;;;24.40;45.80;;;;;;5061139;28;20028;-65
2022/08/13 10:35:12;;;;;;;0.50;0.50;;;24.30;45.70;;;;;;5060534;28;20028;-66
2022/08/13 10:37:53;;;;;;;0.70;0.70;;;24.40;45.70;;;;;;5060074;28;20473;-66
2022/08/13 10:40:20;;;;;;;0.50;0.50;;;24.40;45.80;;;;;;5059351;28;20171;-66
2022/08/13 10:42:46;;;;;;;0.52;0.50;;;24.40;45.70;;;;;;5061074;28;20070;-67
2022/08/13 10:45:15;;;;;;;0.50;0.50;;;24.40;45.80;;;;;;5059695;28;20032;-66
2022/08/13 10:47:49;;;;;;;0.60;0.60;;;24.40;45.70;;;;;;5060442;28;20476;-68
2022/08/13 10:50:16;;;;;;;0.60;0.60;;;24.40;45.80;;;;;;5061291;28;20049;-66
2022/08/13 10:52:42;;;;;;;0.50;0.50;;;24.40;45.80;;;;;;5064246;28;20479;-66
2022/08/13 10:55:11;;;;;;;0.63;0.60;;;24.40;45.70;;;;;;5063993;28;20127;-65
2022/08/13 10:57:40;;;;;;;0.40;0.40;;;24.40;45.80;;;;;;5063427;28;20032;-66
2022/08/13 11:00:09;;;;;;;0.60;0.60;;;24.40;45.70;;;;;;5065406;28;20040;-67
2022/08/13 11:02:34;;;;;;;0.57;0.57;;;24.40;45.80;;;;;;5064570;28;20040;-67
2022/08/13 11:05:01;;;;;;;0.70;0.60;;;24.40;45.70;;;;;;5062758;28;20477;-66
2022/08/13 11:07:26;;;;;;;0.50;0.50;;;24.40;45.70;;;;;;5062438;28;20108;-67
2022/08/13 11:09:52;;;;;;;0.60;0.60;;;24.40;45.70;;;;;;5065008;28;20095;-67
2022/08/13 11:12:19;;;;;;;0.50;0.50;;;24.40;45.70;;;;;;5063939;28;20439;-68
2022/08/13 11:14:46;;;;;;;0.70;0.55;;;24.40;45.70;;;;;;5063336;28;20480;-66
2022/08/13 11:17:17;;;;;;;0.55;0.55;;;24.40;45.70;;;;;;5061278;28;20087;-66
2022/08/13 11:19:48;;;;;;;0.60;0.60;;;24.40;45.70;;;;;;5063494;28;20025;-66
2022/08/13 11:22:15;;;;;;;0.70;0.70;;;24.50;45.70;;;;;;5061185;28;20032;-67
2022/08/13 11:24:41;;;;;;;0.57;0.57;;;24.40;45.70;;;;;;5062971;28;20385;-67
2022/08/13 11:27:07;;;;;;;0.52;0.52;;;24.40;45.70;;;;;;5062861;28;20405;-67
2022/08/13 11:29:32;;;;;;;0.65;0.65;;;24.40;45.70;;;;;;5063686;28;20100;-67
2022/08/13 11:31:58;;;;;;;0.55;0.55;;;24.40;45.70;;;;;;5063988;28;20032;-66
2022/08/13 11:34:25;;;;;;;0.50;0.50;;;24.50;45.80;;;;;;5063370;28;20481;-66
2022/08/13 11:36:51;;;;;;;0.60;0.60;;;24.40;45.70;;;;;;5062310;28;20041;-66
2022/08/13 11:39:17;;;;;;;0.50;0.50;;;24.40;45.80;;;;;;5063002;28;20029;-68
2022/08/13 11:41:43;;;;;;;0.60;0.60;;;24.40;45.70;;;;;;5064048;28;20043;-68
2022/08/13 11:44:09;;;;;;;0.57;0.57;;;24.50;45.80;;;;;;5062543;28;20025;-67
2022/08/13 11:46:34;;;;;;;0.60;0.60;;;24.50;45.80;;;;;;5062801;28;20020;-67
2022/08/13 11:49:00;;;;;;;0.50;0.50;;;24.50;45.80;;;;;;5063189;28;20029;-67
2022/08/13 11:51:26;;;;;;;0.50;0.50;;;24.50;45.80;;;;;;5063460;28;20029;-67
2022/08/13 11:53:51;;;;;;;0.95;0.70;;;24.50;45.80;;;;;;5062475;28;20370;-67
2022/08/13 11:56:17;;;;;;;0.50;0.50;;;24.50;45.80;;;;;;5063124;28;20035;-67
2022/08/13 11:58:42;;;;;;;0.52;0.52;;;24.50;45.80;;;;;;5061273;28;20062;-68
2022/08/13 12:01:08;;;;;;;0.60;0.60;;;24.50;45.80;;;;;;5061230;28;20068;-67
2022/08/13 12:03:39;;;;;;;0.50;0.50;;;24.50;45.80;;;;;;5061821;28;20036;-67
2022/08/13 12:06:05;;;;;;;0.50;0.50;;;24.50;45.80;;;;;;5061847;28;20031;-67
2022/08/13 12:08:31;;;;;;;1.08;0.90;;;24.50;45.80;;;;;;5061629;28;20389;-65
2022/08/13 12:10:57;;;;;;;0.70;0.63;;;24.50;45.80;;;;;;5063279;28;20032;-66
2022/08/13 12:13:23;;;;;;;0.60;0.60;;;24.50;45.80;;;;;;5062432;28;20071;-67
2022/08/13 12:15:49;;;;;;;0.57;0.57;;;24.50;45.80;;;;;;5061959;28;20636;-67
2022/08/13 12:18:17;;;;;;;0.60;0.60;;;24.50;45.80;;;;;;5063109;28;20024;-65
2022/08/13 12:20:43;;;;;;;0.55;0.55;;;24.50;45.80;;;;;;5061958;28;20028;-67
2022/08/13 12:23:10;;;;;;;0.52;0.52;;;24.50;45.80;;;;;;5063349;28;20139;-67
2022/08/13 12:25:36;;;;;;;0.50;0.50;;;24.50;45.80;;;;;;5061992;28;20104;-68
2022/08/13 12:28:22;;;;;;;0.95;0.60;;;24.50;45.80;;;;;;5061338;28;20021;-67
2022/08/13 12:30:54;;;;;;;0.50;0.50;;;24.50;45.80;;;;;;5060815;28;20029;-67
2022/08/13 12:33:21;;;;;;;0.50;0.50;;;24.50;45.80;;;;;;5061085;28;20021;-67
2022/08/13 12:35:47;;;;;;;0.60;0.60;;;24.50;45.80;;;;;;5061478;28;20029;-67
2022/08/13 12:38:15;;;;;;;0.60;0.60;;;24.50;45.80;;;;;;5062932;28;20655;-67
2022/08/13 12:40:43;;;;;;;0.50;0.50;;;24.50;45.80;;;;;;5062175;28;20448;-66
2022/08/13 12:43:09;;;;;;;0.85;0.55;;;24.50;45.80;;;;;;5062060;28;20123;-67
2022/08/13 12:45:36;;;;;;;0.60;0.60;;;24.50;45.80;;;;;;5060901;28;20143;-67
2022/08/13 12:48:06;;;;;;;0.73;0.60;;;24.50;45.80;;;;;;5063038;28;20024;-66
2022/08/13 12:50:33;;;;;;;0.60;0.60;;;24.50;45.80;;;;;;5060547;28;20096;-65
2022/08/13 12:52:59;;;;;;;0.50;0.50;;;24.50;45.80;;;;;;5062212;28;20038;-67
2022/08/13 12:55:24;;;;;;;0.63;0.63;;;24.50;45.80;;;;;;5060632;28;20103;-65
2022/08/13 12:57:51;;;;;;;0.77;0.50;;;24.50;45.80;;;;;;5061294;28;20028;-67
2022/08/13 13:00:16;;;;;;;0.60;0.60;;;24.60;45.90;;;;;;5061162;28;20025;-67
2022/08/13 13:02:42;;;;;;;0.70;0.68;;;24.50;45.80;;;;;;5061316;28;20464;-67
2022/08/13 13:05:08;;;;;;;0.52;0.52;;;24.50;45.80;;;;;;5061810;28;20104;-66
2022/08/13 13:07:34;;;;;;;0.52;0.50;;;24.50;45.80;;;;;;5061403;28;20021;-67
2022/08/13 13:10:00;;;;;;;0.75;0.60;;;24.60;45.90;;;;;;5060472;28;20035;-66
2022/08/13 13:12:26;;;;;;;0.60;0.60;;;24.50;45.80;;;;;;5059567;28;20048;-66